sensor_id;sensor_type;location;lat;lon;timestamp;pressure;altitude;pressure_sealevel;temperature;humidity
29839;BME280;18669;53.356;-1.464;2023-05-01T00:01:11;100637.50;;;13.33;100.00
29839;BME280;18669;53.356;-1.464;2023-05-01T00:03:55;100640.31;;;13.27;100.00
29839;BME280;18669;53.356;-1.464;2023-05-01T00:06:40;100631.47;;;13.30;100.00
29839;BME280;18669;53.356;-1.464;2023-05-01T00:09:28;100626.66;;;13.42;100.00
29839;BME280;18669;53.356;-1.464;2023-05-01T00:12:13;100637.38;;;13.38;100.00
29839;BME280;18669;53.356;-1.464;2023-05-01T00:14:59;100627.81;;;13.34;100.00
29839;BME280;18669;53.356;-1.464;2023-05-01T00:17:43;100620.91;;;13.28;100.00
29839;BME280;18669;53.356;-1.464;2023-05-01T00:20:28;100622.81;;;13.24;100.00
29839;BME280;18669;53.356;-1.464;2023-05-01T00:23:13;100617.69;;;13.20;100.00
29839;BME280;18669;53.356;-1.464;2023-05-01T00:25:58;100618.63;;;13.17;100.00
29839;BME280;18669;53.356;-1.464;2023-05-01T00:28:43;100607.41;;;13.10;100.00
29839;BME280;18669;53.356;-1.464;2023-05-01T00:31:28;100605.81;;;13.05;100.00
29839;BME280;18669;53.356;-1.464;2023-05-01T00:34:13;100608.66;;;12.98;100.00
29839;BME280;18669;53.356;-1.464;2023-05-01T00:36:58;100601.91;;;12.88;100.00
29839;BME280;18669;53.356;-1.464;2023-05-01T00:39:42;100602.97;;;12.82;100.00
29839;BME280;18669;53.356;-1.464;2023-05-01T00:42:34;100598.53;;;12.85;100.00
29839;BME280;18669;53.356;-1.464;2023-05-01T00:45:19;100593.88;;;12.63;100.00
29839;BME280;18669;53.356;-1.464;2023-05-01T00:48:04;100594.69;;;12.65;100.00
29839;BME280;18669;53.356;-1.464;2023-05-01T00:50:49;100599.38;;;12.55;100.00
29839;BME280;18669;53.356;-1.464;2023-05-01T00:53:35;100600.47;;;12.48;100.00
29839;BME280;18669;53.356;-1.464;2023-05-01T00:56:20;100596.31;;;12.39;100.00
29839;BME280;18669;53.356;-1.464;2023-05-01T00:59:06;100590.41;;;12.31;100.00
29839;BME280;18669;53.356;-1.464;2023-05-01T01:01:51;100574.97;;;12.17;100.00
29839;BME280;18669;53.356;-1.464;2023-05-01T01:04:36;100587.50;;;12.08;100.00
29839;BME280;18669;53.356;-1.464;2023-05-01T01:10:29;100582.97;;;12.14;100.00
29839;BME280;18669;53.356;-1.464;2023-05-01T01:13:31;100576.19;;;12.03;100.00
29839;BME280;18669;53.356;-1.464;2023-05-01T01:16:40;100577.47;;;11.88;100.00
29839;BME280;18669;53.356;-1.464;2023-05-01T01:19:50;100578.41;;;11.86;100.00
29839;BME280;18669;53.356;-1.464;2023-05-01T01:22:52;100567.19;;;11.79;100.00
29839;BME280;18669;53.356;-1.464;2023-05-01T01:35:27;100557.03;;;11.63;100.00
29839;BME280;18669;53.356;-1.464;2023-05-01T01:38:23;100541.19;;;11.65;100.00
29839;BME280;18669;53.356;-1.464;2023-05-01T01:41:19;100547.19;;;11.70;100.00
29839;BME280;18669;53.356;-1.464;2023-05-01T01:44:40;100546.13;;;11.77;100.00
29839;BME280;18669;53.356;-1.464;2023-05-01T01:47:28;100547.03;;;11.76;100.00
29839;BME280;18669;53.356;-1.464;2023-05-01T01:50:17;100540.91;;;11.76;100.00
29839;BME280;18669;53.356;-1.464;2023-05-01T01:53:05;100545.81;;;11.88;100.00
29839;BME280;18669;53.356;-1.464;2023-05-01T01:55:53;100548.53;;;11.85;100.00
29839;BME280;18669;53.356;-1.464;2023-05-01T01:58:39;100554.56;;;11.90;100.00
29839;BME280;18669;53.356;-1.464;2023-05-01T02:01:25;100528.19;;;11.90;100.00
29839;BME280;18669;53.356;-1.464;2023-05-01T02:04:12;100537.47;;;12.05;100.00
29839;BME280;18669;53.356;-1.464;2023-05-01T02:07:00;100535.66;;;12.07;100.00
29839;BME280;18669;53.356;-1.464;2023-05-01T02:09:45;100528.63;;;12.08;100.00
29839;BME280;18669;53.356;-1.464;2023-05-01T02:12:30;100526.84;;;12.08;100.00
29839;BME280;18669;53.356;-1.464;2023-05-01T02:15:17;100530.34;;;12.09;100.00
29839;BME280;18669;53.356;-1.464;2023-05-01T02:18:04;100528.75;;;12.03;100.00
29839;BME280;18669;53.356;-1.464;2023-05-01T02:20:50;100523.59;;;12.00;100.00
29839;BME280;18669;53.356;-1.464;2023-05-01T02:23:37;100519.16;;;12.01;100.00
29839;BME280;18669;53.356;-1.464;2023-05-01T02:26:25;100523.59;;;12.00;100.00
29839;BME280;18669;53.356;-1.464;2023-05-01T02:29:11;100523.81;;;11.91;100.00
29839;BME280;18669;53.356;-1.464;2023-05-01T02:31:56;100518.69;;;11.85;100.00
29839;BME280;18669;53.356;-1.464;2023-05-01T02:34:40;100513.59;;;11.78;100.00
29839;BME280;18669;53.356;-1.464;2023-05-01T02:37:26;100509.13;;;11.81;100.00
29839;BME280;18669;53.356;-1.464;2023-05-01T02:40:12;100511.84;;;11.77;100.00
29839;BME280;18669;53.356;-1.464;2023-05-01T02:42:59;100498.56;;;11.82;100.00
29839;BME280;18669;53.356;-1.464;2023-05-01T02:45:46;100504.78;;;11.79;100.00
29839;BME280;18669;53.356;-1.464;2023-05-01T02:48:32;100503.94;;;11.77;100.00
29839;BME280;18669;53.356;-1.464;2023-05-01T02:51:19;100507.28;;;11.84;100.00
29839;BME280;18669;53.356;-1.464;2023-05-01T02:54:05;100503.94;;;11.79;100.00
29839;BME280;18669;53.356;-1.464;2023-05-01T02:56:50;100504.75;;;11.81;100.00
29839;BME280;18669;53.356;-1.464;2023-05-01T02:59:35;100508.47;;;11.72;100.00
29839;BME280;18669;53.356;-1.464;2023-05-01T03:02:20;100498.00;;;11.71;100.00
29839;BME280;18669;53.356;-1.464;2023-05-01T03:05:06;100499.66;;;11.73;100.00
29839;BME280;18669;53.356;-1.464;2023-05-01T03:07:51;100506.81;;;11.68;100.00
29839;BME280;18669;53.356;-1.464;2023-05-01T03:10:39;100490.19;;;11.66;100.00
29839;BME280;18669;53.356;-1.464;2023-05-01T03:13:26;100497.53;;;11.55;100.00
29839;BME280;18669;53.356;-1.464;2023-05-01T03:16:11;100494.94;;;11.53;100.00
29839;BME280;18669;53.356;-1.464;2023-05-01T03:18:57;100491.44;;;11.53;100.00
29839;BME280;18669;53.356;-1.464;2023-05-01T03:21:42;100501.09;;;11.52;100.00
29839;BME280;18669;53.356;-1.464;2023-05-01T03:24:27;100499.38;;;11.51;100.00
29839;BME280;18669;53.356;-1.464;2023-05-01T03:27:12;100499.38;;;11.51;100.00
29839;BME280;18669;53.356;-1.464;2023-05-01T03:29:57;100503.22;;;11.39;100.00
29839;BME280;18669;53.356;-1.464;2023-05-01T03:32:42;100512.75;;;11.43;100.00
29839;BME280;18669;53.356;-1.464;2023-05-01T03:35:27;100517.09;;;11.46;100.00
29839;BME280;18669;53.356;-1.464;2023-05-01T03:38:12;100502.09;;;11.48;100.00
29839;BME280;18669;53.356;-1.464;2023-05-01T03:40:58;100514.19;;;11.57;100.00
29839;BME280;18669;53.356;-1.464;2023-05-01T03:43:43;100510.66;;;11.56;100.00
29839;BME280;18669;53.356;-1.464;2023-05-01T03:46:28;100515.09;;;11.56;100.00
29839;BME280;18669;53.356;-1.464;2023-05-01T03:49:13;100507.28;;;11.51;100.00
29839;BME280;18669;53.356;-1.464;2023-05-01T03:51:58;100525.63;;;11.56;100.00
29839;BME280;18669;53.356;-1.464;2023-05-01T03:54:43;100524.91;;;11.49;100.00
29839;BME280;18669;53.356;-1.464;2023-05-01T03:57:28;100520.44;;;11.53;100.00
29839;BME280;18669;53.356;-1.464;2023-05-01T04:00:13;100518.69;;;11.52;100.00
29839;BME280;18669;53.356;-1.464;2023-05-01T04:02:58;100528.34;;;11.51;100.00
29839;BME280;18669;53.356;-1.464;2023-05-01T04:05:43;100527.44;;;11.52;100.00
29839;BME280;18669;53.356;-1.464;2023-05-01T04:08:28;100522.31;;;11.47;100.00
29839;BME280;18669;53.356;-1.464;2023-05-01T04:11:13;100531.06;;;11.48;100.00
29839;BME280;18669;53.356;-1.464;2023-05-01T04:13:58;100520.66;;;11.45;100.00
29839;BME280;18669;53.356;-1.464;2023-05-01T04:16:43;100523.53;;;11.34;100.00
29839;BME280;18669;53.356;-1.464;2023-05-01T04:19:28;100524.63;;;11.25;100.00
29839;BME280;18669;53.356;-1.464;2023-05-01T04:22:13;100519.44;;;11.22;100.00
29839;BME280;18669;53.356;-1.464;2023-05-01T04:24:58;100534.41;;;11.20;100.00
29839;BME280;18669;53.356;-1.464;2023-05-01T04:27:43;100533.50;;;11.21;100.00
29839;BME280;18669;53.356;-1.464;2023-05-01T04:30:29;100538.50;;;11.32;100.00
29839;BME280;18669;53.356;-1.464;2023-05-01T04:33:14;100534.03;;;11.36;100.00
29839;BME280;18669;53.356;-1.464;2023-05-01T04:35:59;100529.53;;;11.41;100.00
29839;BME280;18669;53.356;-1.464;2023-05-01T04:38:44;100530.44;;;11.40;100.00
29839;BME280;18669;53.356;-1.464;2023-05-01T04:41:29;100536.53;;;11.42;100.00
29839;BME280;18669;53.356;-1.464;2023-05-01T04:44:14;100526.91;;;11.39;100.00
29839;BME280;18669;53.356;-1.464;2023-05-01T04:47:02;100539.56;;;11.59;100.00
29839;BME280;18669;53.356;-1.464;2023-05-01T04:49:47;100544.91;;;11.56;100.00
29839;BME280;18669;53.356;-1.464;2023-05-01T04:52:32;100531.75;;;11.56;100.00
29839;BME280;18669;53.356;-1.464;2023-05-01T04:55:17;100525.69;;;11.53;100.00
29839;BME280;18669;53.356;-1.464;2023-05-01T04:58:02;100531.81;;;11.53;100.00
29839;BME280;18669;53.356;-1.464;2023-05-01T05:00:48;100527.34;;;11.57;100.00
29839;BME280;18669;53.356;-1.464;2023-05-01T05:03:33;100529.91;;;11.60;100.00
29839;BME280;18669;53.356;-1.464;2023-05-01T05:06:18;100533.28;;;11.65;100.00
29839;BME280;18669;53.356;-1.464;2023-05-01T05:09:03;100533.25;;;11.67;100.00
29839;BME280;18669;53.356;-1.464;2023-05-01T05:11:47;100534.00;;;11.70;100.00
29839;BME280;18669;53.356;-1.464;2023-05-01T05:14:32;100529.56;;;11.72;100.00
29839;BME280;18669;53.356;-1.464;2023-05-01T05:17:17;100522.41;;;11.77;100.00
29839;BME280;18669;53.356;-1.464;2023-05-01T05:20:02;100529.16;;;11.88;100.00
29839;BME280;18669;53.356;-1.464;2023-05-01T05:22:47;100537.72;;;11.96;100.00
29839;BME280;18669;53.356;-1.464;2023-05-01T05:25:32;100534.91;;;12.02;100.00
29839;BME280;18669;53.356;-1.464;2023-05-01T05:28:16;100541.00;;;12.06;100.00
29839;BME280;18669;53.356;-1.464;2023-05-01T05:31:01;100532.19;;;12.05;100.00
29839;BME280;18669;53.356;-1.464;2023-05-01T05:33:46;100541.00;;;12.06;100.00
29839;BME280;18669;53.356;-1.464;2023-05-01T05:36:31;100532.03;;;12.12;100.00
29839;BME280;18669;53.356;-1.464;2023-05-01T05:39:16;100538.94;;;12.17;100.00
29839;BME280;18669;53.356;-1.464;2023-05-01T05:42:01;100532.50;;;12.26;100.00
29839;BME280;18669;53.356;-1.464;2023-05-01T05:44:47;100527.16;;;12.29;100.00
29839;BME280;18669;53.356;-1.464;2023-05-01T05:47:32;100541.78;;;12.39;100.00
29839;BME280;18669;53.356;-1.464;2023-05-01T05:50:16;100546.13;;;12.42;100.00
29839;BME280;18669;53.356;-1.464;2023-05-01T05:53:01;100555.69;;;12.45;100.00
29839;BME280;18669;53.356;-1.464;2023-05-01T05:55:46;100558.41;;;12.43;100.00
29839;BME280;18669;53.356;-1.464;2023-05-01T05:58:32;100551.94;;;12.53;100.00
29839;BME280;18669;53.356;-1.464;2023-05-01T06:01:17;100541.16;;;12.61;100.00
29839;BME280;18669;53.356;-1.464;2023-05-01T06:04:02;100557.81;;;12.63;100.00
29839;BME280;18669;53.356;-1.464;2023-05-01T06:06:47;100552.13;;;12.76;100.00
29839;BME280;18669;53.356;-1.464;2023-05-01T06:09:32;100552.28;;;12.71;100.00
29839;BME280;18669;53.356;-1.464;2023-05-01T06:12:17;100549.41;;;12.79;100.00
29839;BME280;18669;53.356;-1.464;2023-05-01T06:15:03;100555.28;;;12.89;100.00
29839;BME280;18669;53.356;-1.464;2023-05-01T06:17:48;100555.16;;;12.92;100.00
29839;BME280;18669;53.356;-1.464;2023-05-01T06:20:33;100549.69;;;12.98;100.00
29839;BME280;18669;53.356;-1.464;2023-05-01T06:23:17;100546.13;;;12.99;100.00
29839;BME280;18669;53.356;-1.464;2023-05-01T06:26:02;100548.47;;;13.08;100.00
29839;BME280;18669;53.356;-1.464;2023-05-01T06:28:47;100551.94;;;13.10;100.00
29839;BME280;18669;53.356;-1.464;2023-05-01T06:31:32;100554.41;;;13.15;100.00
29839;BME280;18669;53.356;-1.464;2023-05-01T06:34:17;100562.97;;;13.23;100.00
29839;BME280;18669;53.356;-1.464;2023-05-01T06:37:02;100559.13;;;13.32;100.00
29839;BME280;18669;53.356;-1.464;2023-05-01T06:39:48;100570.19;;;13.45;100.00
29839;BME280;18669;53.356;-1.464;2023-05-01T06:42:34;100561.31;;;13.48;100.00
29839;BME280;18669;53.356;-1.464;2023-05-01T06:45:19;100570.97;;;13.49;100.00
29839;BME280;18669;53.356;-1.464;2023-05-01T06:48:04;100576.28;;;13.47;100.00
29839;BME280;18669;53.356;-1.464;2023-05-01T06:50:50;100576.00;;;13.56;100.00
29839;BME280;18669;53.356;-1.464;2023-05-01T06:53:36;100573.03;;;13.39;100.00
29839;BME280;18669;53.356;-1.464;2023-05-01T06:56:22;100589.44;;;13.22;100.00
29839;BME280;18669;53.356;-1.464;2023-05-01T06:59:08;100582.66;;;13.13;100.00
29839;BME280;18669;53.356;-1.464;2023-05-01T07:01:54;100585.09;;;13.19;100.00
29839;BME280;18669;53.356;-1.464;2023-05-01T07:04:42;100580.88;;;13.13;100.00
29839;BME280;18669;53.356;-1.464;2023-05-01T07:07:28;100578.09;;;13.18;100.00
29839;BME280;18669;53.356;-1.464;2023-05-01T07:10:16;100597.03;;;13.31;100.00
29839;BME280;18669;53.356;-1.464;2023-05-01T07:13:01;100588.50;;;13.51;100.00
29839;BME280;18669;53.356;-1.464;2023-05-01T07:15:47;100583.53;;;13.42;100.00
29839;BME280;18669;53.356;-1.464;2023-05-01T07:18:32;100586.00;;;13.47;100.00
29839;BME280;18669;53.356;-1.464;2023-05-01T07:21:18;100589.72;;;13.68;100.00
29839;BME280;18669;53.356;-1.464;2023-05-01T07:24:03;100587.28;;;13.87;100.00
29839;BME280;18669;53.356;-1.464;2023-05-01T07:26:48;100595.66;;;14.25;100.00
29839;BME280;18669;53.356;-1.464;2023-05-01T07:29:37;100598.50;;;14.67;100.00
29839;BME280;18669;53.356;-1.464;2023-05-01T07:32:23;100604.41;;;14.75;100.00
29839;BME280;18669;53.356;-1.464;2023-05-01T07:35:08;100606.50;;;14.89;100.00
29839;BME280;18669;53.356;-1.464;2023-05-01T07:37:53;100608.63;;;15.03;100.00
29839;BME280;18669;53.356;-1.464;2023-05-01T07:40:38;100612.47;;;14.96;100.00
29839;BME280;18669;53.356;-1.464;2023-05-01T07:43:23;100609.94;;;14.93;100.00
29839;BME280;18669;53.356;-1.464;2023-05-01T07:46:08;100614.91;;;15.00;100.00
29839;BME280;18669;53.356;-1.464;2023-05-01T07:48:53;100607.44;;;14.88;100.00
29839;BME280;18669;53.356;-1.464;2023-05-01T07:51:37;100609.00;;;14.70;100.00
29839;BME280;18669;53.356;-1.464;2023-05-01T07:54:22;100615.19;;;14.70;100.00
29839;BME280;18669;53.356;-1.464;2023-05-01T07:57:08;100620.53;;;14.69;100.00
29839;BME280;18669;53.356;-1.464;2023-05-01T07:59:54;100620.03;;;14.83;100.00
29839;BME280;18669;53.356;-1.464;2023-05-01T08:02:40;100618.50;;;14.99;100.00
29839;BME280;18669;53.356;-1.464;2023-05-01T08:05:25;100622.75;;;15.03;100.00
29839;BME280;18669;53.356;-1.464;2023-05-01T08:08:09;100626.50;;;14.98;100.00
29839;BME280;18669;53.356;-1.464;2023-05-01T08:10:56;100629.88;;;15.01;100.00
29839;BME280;18669;53.356;-1.464;2023-05-01T08:13:41;100627.94;;;15.06;100.00
29839;BME280;18669;53.356;-1.464;2023-05-01T08:16:26;100631.88;;;15.18;100.00
29839;BME280;18669;53.356;-1.464;2023-05-01T08:19:11;100633.47;;;15.23;100.00
29839;BME280;18669;53.356;-1.464;2023-05-01T08:21:56;100629.81;;;15.25;100.00
29839;BME280;18669;53.356;-1.464;2023-05-01T08:24:41;100619.78;;;15.33;100.00
29839;BME280;18669;53.356;-1.464;2023-05-01T08:27:26;100629.47;;;15.34;100.00
29839;BME280;18669;53.356;-1.464;2023-05-01T08:30:11;100623.78;;;15.44;100.00
29839;BME280;18669;53.356;-1.464;2023-05-01T08:32:56;100626.44;;;15.66;100.00
29839;BME280;18669;53.356;-1.464;2023-05-01T08:35:41;100624.25;;;15.76;100.00
29839;BME280;18669;53.356;-1.464;2023-05-01T08:38:26;100630.84;;;15.65;100.00
29839;BME280;18669;53.356;-1.464;2023-05-01T08:41:19;100628.28;;;15.64;100.00
29839;BME280;18669;53.356;-1.464;2023-05-01T08:44:06;100640.06;;;15.34;100.00
29839;BME280;18669;53.356;-1.464;2023-05-01T08:47:14;100648.56;;;15.20;100.00
29839;BME280;18669;53.356;-1.464;2023-05-01T08:49:59;100646.31;;;14.87;100.00
29839;BME280;18669;53.356;-1.464;2023-05-01T08:52:45;100647.97;;;14.90;100.00
29839;BME280;18669;53.356;-1.464;2023-05-01T08:55:32;100647.03;;;15.15;100.00
29839;BME280;18669;53.356;-1.464;2023-05-01T08:58:18;100642.91;;;15.07;100.00
29839;BME280;18669;53.356;-1.464;2023-05-01T09:01:05;100643.88;;;15.27;100.00
29839;BME280;18669;53.356;-1.464;2023-05-01T09:03:51;100634.56;;;15.61;100.00
29839;BME280;18669;53.356;-1.464;2023-05-01T09:06:37;100645.75;;;15.90;100.00
29839;BME280;18669;53.356;-1.464;2023-05-01T09:09:22;100646.84;;;16.47;100.00
29839;BME280;18669;53.356;-1.464;2023-05-01T09:14:58;100650.00;;;16.95;93.98
29839;BME280;18669;53.356;-1.464;2023-05-01T09:17:43;100645.63;;;17.67;87.62
29839;BME280;18669;53.356;-1.464;2023-05-01T09:20:29;100642.19;;;18.85;74.87
29839;BME280;18669;53.356;-1.464;2023-05-01T09:23:15;100651.72;;;20.00;67.15
29839;BME280;18669;53.356;-1.464;2023-05-01T09:26:03;100650.50;;;20.35;64.05
29839;BME280;18669;53.356;-1.464;2023-05-01T09:28:48;100645.97;;;20.80;58.62
29839;BME280;18669;53.356;-1.464;2023-05-01T09:31:35;100643.41;;;21.21;58.71
29839;BME280;18669;53.356;-1.464;2023-05-01T09:34:20;100643.50;;;21.87;53.64
29839;BME280;18669;53.356;-1.464;2023-05-01T09:37:05;100641.06;;;22.10;54.01
29839;BME280;18669;53.356;-1.464;2023-05-01T09:40:06;100640.97;;;21.98;54.11
29839;BME280;18669;53.356;-1.464;2023-05-01T09:42:52;100644.09;;;21.37;55.96
29839;BME280;18669;53.356;-1.464;2023-05-01T09:45:41;100638.81;;;21.23;55.74
29839;BME280;18669;53.356;-1.464;2023-05-01T09:48:26;100647.44;;;20.12;57.62
29839;BME280;18669;53.356;-1.464;2023-05-01T09:51:28;100642.78;;;19.85;59.22
29839;BME280;18669;53.356;-1.464;2023-05-01T09:54:18;100645.41;;;19.24;59.92
29839;BME280;18669;53.356;-1.464;2023-05-01T09:57:03;100652.25;;;18.80;62.12
29839;BME280;18669;53.356;-1.464;2023-05-01T10:00:15;100651.19;;;18.51;59.73
29839;BME280;18669;53.356;-1.464;2023-05-01T10:03:11;100654.03;;;17.77;65.32
29839;BME280;18669;53.356;-1.464;2023-05-01T10:05:57;100651.78;;;17.33;68.79
29839;BME280;18669;53.356;-1.464;2023-05-01T10:08:48;100657.31;;;17.28;77.55
29839;BME280;18669;53.356;-1.464;2023-05-01T10:11:49;100659.06;;;17.47;72.18
29839;BME280;18669;53.356;-1.464;2023-05-01T10:14:50;100654.25;;;17.55;71.26
29839;BME280;18669;53.356;-1.464;2023-05-01T10:17:35;100666.34;;;17.43;66.98
29839;BME280;18669;53.356;-1.464;2023-05-01T10:20:21;100675.56;;;17.36;65.19
29839;BME280;18669;53.356;-1.464;2023-05-01T10:23:06;100677.88;;;17.24;66.66
29839;BME280;18669;53.356;-1.464;2023-05-01T10:25:52;100672.59;;;17.42;63.14
29839;BME280;18669;53.356;-1.464;2023-05-01T10:28:37;100664.44;;;17.82;61.95
29839;BME280;18669;53.356;-1.464;2023-05-01T10:31:23;100662.09;;;18.11;62.04
29839;BME280;18669;53.356;-1.464;2023-05-01T10:34:10;100663.69;;;18.82;60.23
29839;BME280;18669;53.356;-1.464;2023-05-01T10:37:02;100653.16;;;20.06;55.65
29839;BME280;18669;53.356;-1.464;2023-05-01T10:39:48;100650.53;;;20.64;51.99
29839;BME280;18669;53.356;-1.464;2023-05-01T10:48:53;100657.59;;;19.44;54.83
29839;BME280;18669;53.356;-1.464;2023-05-01T10:51:58;100668.56;;;19.23;54.54
29839;BME280;18669;53.356;-1.464;2023-05-01T10:54:43;100678.47;;;18.72;56.17
29839;BME280;18669;53.356;-1.464;2023-05-01T10:57:42;100679.22;;;19.07;56.69
29839;BME280;18669;53.356;-1.464;2023-05-01T11:00:30;100686.19;;;19.89;55.05
29839;BME280;18669;53.356;-1.464;2023-05-01T11:06:07;100693.03;;;19.46;56.25
29839;BME280;18669;53.356;-1.464;2023-05-01T11:08:52;100699.03;;;18.86;55.57
29839;BME280;18669;53.356;-1.464;2023-05-01T11:14:22;100701.81;;;18.33;62.10
29839;BME280;18669;53.356;-1.464;2023-05-01T11:17:09;100692.56;;;20.17;56.49
29839;BME280;18669;53.356;-1.464;2023-05-01T11:19:54;100691.81;;;21.30;49.76
29839;BME280;18669;53.356;-1.464;2023-05-01T11:22:43;100702.06;;;22.19;47.97
29839;BME280;18669;53.356;-1.464;2023-05-01T11:25:30;100687.09;;;23.18;45.60
29839;BME280;18669;53.356;-1.464;2023-05-01T11:28:18;100682.69;;;24.26;42.36
29839;BME280;18669;53.356;-1.464;2023-05-01T11:31:04;100685.69;;;25.02;41.16
29839;BME280;18669;53.356;-1.464;2023-05-01T11:33:48;100682.91;;;24.93;40.20
29839;BME280;18669;53.356;-1.464;2023-05-01T11:36:47;100690.88;;;23.89;40.99
29839;BME280;18669;53.356;-1.464;2023-05-01T11:39:33;100687.41;;;22.38;42.79
29839;BME280;18669;53.356;-1.464;2023-05-01T11:42:21;100695.97;;;21.76;44.53
29839;BME280;18669;53.356;-1.464;2023-05-01T11:45:07;100691.50;;;21.08;45.26
29839;BME280;18669;53.356;-1.464;2023-05-01T11:47:54;100704.34;;;20.43;45.87
29839;BME280;18669;53.356;-1.464;2023-05-01T11:50:39;100687.28;;;21.04;45.50
29839;BME280;18669;53.356;-1.464;2023-05-01T11:53:24;100696.06;;;21.62;43.08
29839;BME280;18669;53.356;-1.464;2023-05-01T11:56:19;100684.16;;;23.34;40.16
29839;BME280;18669;53.356;-1.464;2023-05-01T11:59:14;100687.88;;;25.20;38.25
29839;BME280;18669;53.356;-1.464;2023-05-01T12:02:02;100691.59;;;25.84;35.82
29839;BME280;18669;53.356;-1.464;2023-05-01T12:04:47;100711.47;;;24.60;38.44
29839;BME280;18669;53.356;-1.464;2023-05-01T12:07:32;100708.06;;;23.13;39.98
29839;BME280;18669;53.356;-1.464;2023-05-01T12:10:20;100713.59;;;21.94;42.16
29839;BME280;18669;53.356;-1.464;2023-05-01T12:13:06;100716.91;;;21.42;43.08
29839;BME280;18669;53.356;-1.464;2023-05-01T12:15:53;100714.22;;;21.42;43.14
29839;BME280;18669;53.356;-1.464;2023-05-01T12:18:38;100702.53;;;21.58;43.80
29839;BME280;18669;53.356;-1.464;2023-05-01T12:21:23;100711.53;;;20.71;44.59
29839;BME280;18669;53.356;-1.464;2023-05-01T12:24:17;100714.97;;;20.45;46.17
29839;BME280;18669;53.356;-1.464;2023-05-01T12:27:02;100719.81;;;19.61;48.80
29839;BME280;18669;53.356;-1.464;2023-05-01T12:29:47;100722.41;;;19.30;49.94
29839;BME280;18669;53.356;-1.464;2023-05-01T12:32:32;100719.75;;;18.81;51.28
29839;BME280;18669;53.356;-1.464;2023-05-01T12:35:17;100735.81;;;18.97;52.36
29839;BME280;18669;53.356;-1.464;2023-05-01T12:38:10;100734.97;;;19.44;52.80
29839;BME280;18669;53.356;-1.464;2023-05-01T12:40:57;100724.31;;;20.07;51.22
29839;BME280;18669;53.356;-1.464;2023-05-01T12:43:42;100724.63;;;20.62;49.64
29839;BME280;18669;53.356;-1.464;2023-05-01T12:46:28;100726.66;;;21.43;47.15
29839;BME280;18669;53.356;-1.464;2023-05-01T12:49:20;100713.66;;;22.19;46.44
29839;BME280;18669;53.356;-1.464;2023-05-01T12:52:06;100736.69;;;22.09;44.93
29839;BME280;18669;53.356;-1.464;2023-05-01T12:55:01;100733.28;;;21.93;45.97
29839;BME280;18669;53.356;-1.464;2023-05-01T12:57:52;100739.59;;;22.32;45.24
29839;BME280;18669;53.356;-1.464;2023-05-01T13:00:52;100737.97;;;22.16;44.74
29839;BME280;18669;53.356;-1.464;2023-05-01T13:03:42;100738.94;;;21.19;47.35
29839;BME280;18669;53.356;-1.464;2023-05-01T13:06:31;100751.63;;;20.12;49.71
29839;BME280;18669;53.356;-1.464;2023-05-01T13:09:19;100751.22;;;19.23;51.41
29839;BME280;18669;53.356;-1.464;2023-05-01T13:12:05;100746.81;;;19.06;52.93
29839;BME280;18669;53.356;-1.464;2023-05-01T13:14:50;100744.94;;;19.25;53.59
29839;BME280;18669;53.356;-1.464;2023-05-01T13:17:35;100763.91;;;19.52;53.65
29839;BME280;18669;53.356;-1.464;2023-05-01T13:20:25;100759.16;;;20.50;51.80
29839;BME280;18669;53.356;-1.464;2023-05-01T13:23:11;100752.97;;;21.22;50.10
29839;BME280;18669;53.356;-1.464;2023-05-01T13:25:56;100758.25;;;22.20;47.47
29839;BME280;18669;53.356;-1.464;2023-05-01T13:28:42;100764.84;;;22.55;47.36
29839;BME280;18669;53.356;-1.464;2023-05-01T13:31:30;100757.16;;;22.23;46.59
29839;BME280;18669;53.356;-1.464;2023-05-01T13:34:21;100771.91;;;21.75;47.88
29839;BME280;18669;53.356;-1.464;2023-05-01T13:37:09;100766.22;;;21.38;49.09
29839;BME280;18669;53.356;-1.464;2023-05-01T13:39:57;100761.78;;;22.21;48.00
29839;BME280;18669;53.356;-1.464;2023-05-01T13:42:42;100761.97;;;22.71;45.71
29839;BME280;18669;53.356;-1.464;2023-05-01T13:45:27;100763.41;;;23.14;44.62
29839;BME280;18669;53.356;-1.464;2023-05-01T13:48:15;100761.50;;;23.03;44.73
29839;BME280;18669;53.356;-1.464;2023-05-01T13:51:00;100765.06;;;22.52;44.86
29839;BME280;18669;53.356;-1.464;2023-05-01T13:53:45;100774.78;;;22.00;45.97
29839;BME280;18669;53.356;-1.464;2023-05-01T13:56:31;100772.38;;;21.26;47.30
29839;BME280;18669;53.356;-1.464;2023-05-01T13:59:18;100769.44;;;21.16;47.04
29839;BME280;18669;53.356;-1.464;2023-05-01T14:05:07;100786.94;;;20.62;49.40
29839;BME280;18669;53.356;-1.464;2023-05-01T14:07:55;100777.66;;;20.08;50.21
29839;BME280;18669;53.356;-1.464;2023-05-01T14:10:40;100783.19;;;19.89;51.94
29839;BME280;18669;53.356;-1.464;2023-05-01T14:13:25;100780.84;;;19.83;50.85
29839;BME280;18669;53.356;-1.464;2023-05-01T14:16:21;100778.00;;;19.86;51.33
29839;BME280;18669;53.356;-1.464;2023-05-01T14:19:06;100776.97;;;19.89;52.21
29839;BME280;18669;53.356;-1.464;2023-05-01T14:21:52;100782.72;;;20.13;52.98
29839;BME280;18669;53.356;-1.464;2023-05-01T14:24:39;100783.78;;;20.55;51.61
29839;BME280;18669;53.356;-1.464;2023-05-01T14:27:24;100783.47;;;21.34;49.18
29839;BME280;18669;53.356;-1.464;2023-05-01T14:30:18;100781.06;;;22.13;46.64
29839;BME280;18669;53.356;-1.464;2023-05-01T14:33:11;100774.69;;;21.59;46.65
29839;BME280;18669;53.356;-1.464;2023-05-01T14:35:56;100775.31;;;21.50;46.52
29839;BME280;18669;53.356;-1.464;2023-05-01T14:38:41;100775.59;;;22.28;46.61
29839;BME280;18669;53.356;-1.464;2023-05-01T14:41:30;100780.72;;;22.45;45.81
29839;BME280;18669;53.356;-1.464;2023-05-01T14:44:18;100782.25;;;23.27;44.64